Thunder radar more information blitzortung!


Radar de pluja more information rain snow radar


Visita la nostra xarxa de llocs de meteo:

Template documentation
and downloads

And another site



No particular awareness of the weather is required.    There are no Weather-warnings

Pagina Historial Weather Underground text

Diari Resum Juny 21, 2016 Unitats:  Mètric    Imperial   Tant
« Previous Dia
SegĂźent Dia »
Diari Setmana Mensual Anual Personalitzada
  Maxima: Minima: Media:
Temperatura: 32.2 °C 14.6 °C 25.3 °C
Punt de rosada: 12.3 °C 5.7 °C 9.7 °C
Humitat: 66 % 23 % 40 %
Wind Speed: 22.2 km/h 0.0 km/h 8.8 km/h
RĂ fegues de vent: 22.2 km/h - -
Vent:- - WSW
Pression baro: 1022.9 hPa 1018.8 hPa -
Precipitacions: 0.0 mm    
Historical Graphs
 
 
Dades de taula per Juny 21, 2016
Temps Temperatura Punt de rosada Pression baro Vent Wind Speed RĂ fegues de vent Humitat Rainfall Rate (Hourly)
00:00 15.4 °C 8.4 °C 1021.9 hPa West 1.6 km/h   63 % 0.0 mm
00:02 18.9 °C 9.1 °C 1021.9 hPa SW 5.6 km/h 5.6 km/h 53 % 0.0 mm
00:07 18.8 °C 9.3 °C 1021.9 hPa SW 5.6 km/h 5.6 km/h 54 % 0.0 mm
00:10 15.3 °C 8.5 °C 1021.9 hPa West 1.6 km/h   64 % 0.0 mm
00:20 15.2 °C 8.7 °C 1020.9 hPa West 1.6 km/h   65 % 0.0 mm
00:30 15.1 °C 8.3 °C 1021.9 hPa West 1.6 km/h   64 % 0.0 mm
00:40 14.9 °C 8.4 °C 1021.9 hPa West 1.6 km/h   65 % 0.0 mm
00:50 14.9 °C 8.4 °C 1021.9 hPa West 1.6 km/h   65 % 0.0 mm
01:00 15.1 °C 8.8 °C 1021.9 hPa West 1.6 km/h   66 % 0.0 mm
01:10 15.2 °C 8.9 °C 1021.9 hPa West 1.6 km/h   66 % 0.0 mm
01:20 15.1 °C 8.6 °C 1020.9 hPa West 1.6 km/h   65 % 0.0 mm
01:30 14.6 °C 7.9 °C 1021.9 hPa West 1.6 km/h   64 % 0.0 mm
01:40 14.6 °C 8.1 °C 1021.9 hPa West 1.6 km/h   65 % 0.0 mm
01:50 14.7 °C 7.9 °C 1020.9 hPa West 1.6 km/h   64 % 0.0 mm
02:00 14.6 °C 7.9 °C 1021.9 hPa West 1.6 km/h   64 % 0.0 mm
02:10 14.7 °C 7.9 °C 1021.9 hPa West 1.6 km/h   64 % 0.0 mm
02:20 14.8 °C 8.3 °C 1022.9 hPa West 1.6 km/h   65 % 0.0 mm
02:30 15.1 °C 8.3 °C 1021.9 hPa West 1.6 km/h   64 % 0.0 mm
02:40 15.7 °C 8.9 °C 1021.9 hPa West 1.6 km/h   64 % 0.0 mm
02:50 16.2 °C 9.2 °C 1021.9 hPa West 1.6 km/h   63 % 0.0 mm
03:00 16.6 °C 9.3 °C 1021.9 hPa West 1.6 km/h   62 % 0.0 mm
03:10 17.1 °C 9.3 °C 1021.9 hPa West 1.6 km/h   60 % 0.0 mm
03:20 18.0 °C 10.1 °C 1021.9 hPa West 1.6 km/h   60 % 0.0 mm
03:30 18.3 °C 10.2 °C 1021.9 hPa West 1.6 km/h   59 % 0.0 mm
03:40 19.2 °C 10.4 °C 1021.9 hPa West 1.6 km/h   57 % 0.0 mm
03:50 19.2 °C 10.2 °C 1021.9 hPa West 1.6 km/h   56 % 0.0 mm
04:00 19.9 °C 10.3 °C 1021.9 hPa West 1.6 km/h 3.2 km/h 54 % 0.0 mm
04:10 21.2 °C 11.2 °C 1021.9 hPa South 1.6 km/h 3.2 km/h 53 % 0.0 mm
04:20 21.2 °C 10.9 °C 1021.9 hPa Calm   3.2 km/h 52 % 0.0 mm
04:30 21.7 °C 10.8 °C 1021.9 hPa SW 3.2 km/h 3.2 km/h 50 % 0.0 mm
04:40 22.5 °C 11.6 °C 1021.9 hPa SW 3.2 km/h 3.2 km/h 50 % 0.0 mm
04:50 23.2 °C 11.3 °C 1021.9 hPa SSW 3.2 km/h 4.8 km/h 47 % 0.0 mm
05:00 23.4 °C 11.1 °C 1021.9 hPa SW 3.2 km/h 4.8 km/h 46 % 0.0 mm
05:10 23.6 °C 10.6 °C 1021.9 hPa SW 4.8 km/h 9.7 km/h 44 % 0.0 mm
05:20 24.3 °C 10.6 °C 1020.9 hPa SW 3.2 km/h 9.7 km/h 42 % 0.0 mm
05:30 24.6 °C 10.4 °C 1021.9 hPa SW 4.8 km/h 6.4 km/h 41 % 0.0 mm
05:40 25.0 °C 10.4 °C 1021.9 hPa WSW 3.2 km/h 4.8 km/h 40 % 0.0 mm
05:50 26.0 °C 11.3 °C 1021.9 hPa SW 4.8 km/h 8.0 km/h 40 % 0.0 mm
06:00 26.0 °C 11.3 °C 1021.9 hPa SSW 4.8 km/h 4.8 km/h 40 % 0.0 mm
06:10 25.8 °C 10.8 °C 1021.9 hPa SSW 3.2 km/h 6.4 km/h 39 % 0.0 mm
11:11 25.8 °C 10.8 °C 1021.9 hPa SW 5.6 km/h 5.6 km/h 39 % 0.0 mm
11:16 26.7 °C 12.0 °C 1021.9 hPa SSW 6.1 km/h 6.1 km/h 40 % 0.0 mm
11:21 27.1 °C 11.6 °C 1021.9 hPa SSW 6.1 km/h 6.1 km/h 38 % 0.0 mm
11:26 27.5 °C 11.9 °C 1021.9 hPa SSW 6.1 km/h 6.1 km/h 38 % 0.0 mm
11:31 27.5 °C 11.5 °C 1021.9 hPa SSW 6.1 km/h 6.1 km/h 37 % 0.0 mm
11:36 28.0 °C 11.6 °C 1021.9 hPa SSW 6.1 km/h 6.1 km/h 36 % 0.0 mm
11:41 28.2 °C 11.7 °C 1021.9 hPa SSW 6.1 km/h 6.1 km/h 36 % 0.0 mm
11:46 28.4 °C 11.9 °C 1021.9 hPa SSW 6.1 km/h 6.1 km/h 36 % 0.0 mm
11:51 28.2 °C 11.3 °C 1021.9 hPa SW 4.7 km/h 5.8 km/h 35 % 0.0 mm
11:56 28.5 °C 11.6 °C 1021.9 hPa SW 7.4 km/h 7.4 km/h 35 % 0.0 mm
12:01 29.0 °C 11.1 °C 1021.9 hPa SW 7.4 km/h 7.4 km/h 33 % 0.0 mm
12:06 28.5 °C 11.1 °C 1021.9 hPa SW 7.4 km/h 7.4 km/h 34 % 0.0 mm
12:11 28.9 °C 11.0 °C 1021.9 hPa West 9.3 km/h 9.3 km/h 33 % 0.0 mm
12:16 29.1 °C 10.2 °C 1021.9 hPa South 9.3 km/h 9.3 km/h 31 % 0.0 mm
12:21 29.2 °C 10.8 °C 1021.9 hPa SSW 3.9 km/h 5.0 km/h 32 % 0.0 mm
12:26 29.5 °C 10.6 °C 1020.9 hPa SSW 7.4 km/h 7.4 km/h 31 % 0.0 mm
12:31 29.9 °C 11.4 °C 1020.9 hPa SW 9.7 km/h 9.7 km/h 32 % 0.0 mm
12:36 29.6 °C 10.7 °C 1020.9 hPa SW 14.8 km/h 14.8 km/h 31 % 0.0 mm
12:41 29.5 °C 10.6 °C 1020.9 hPa WSW 7.4 km/h 7.4 km/h 31 % 0.0 mm
12:46 29.5 °C 10.6 °C 1020.9 hPa SW 7.4 km/h 7.4 km/h 31 % 0.0 mm
12:51 29.8 °C 10.8 °C 1020.9 hPa SW 11.1 km/h 11.1 km/h 31 % 0.0 mm
12:56 30.0 °C 11.0 °C 1019.9 hPa South 11.1 km/h 11.1 km/h 31 % 0.0 mm
13:01 29.6 °C 11.2 °C 1019.9 hPa SW 9.3 km/h 9.3 km/h 32 % 0.0 mm
13:06 30.1 °C 11.1 °C 1019.9 hPa West 11.1 km/h 11.1 km/h 31 % 0.0 mm
13:11 30.0 °C 11.5 °C 1020.9 hPa SSW 13.0 km/h 13.0 km/h 32 % 0.0 mm
13:16 30.2 °C 11.7 °C 1020.9 hPa WSW 14.0 km/h 14.0 km/h 32 % 0.0 mm
13:21 30.2 °C 11.7 °C 1020.9 hPa WSW 13.0 km/h 13.0 km/h 32 % 0.0 mm
13:26 30.0 °C 11.5 °C 1019.9 hPa WSW 11.1 km/h 11.1 km/h 32 % 0.0 mm
13:31 30.5 °C 11.9 °C 1019.9 hPa SW 11.1 km/h 11.1 km/h 32 % 0.0 mm
13:36 30.5 °C 11.4 °C 1019.9 hPa SSW 13.0 km/h 13.0 km/h 31 % 0.0 mm
13:41 30.5 °C 11.4 °C 1019.9 hPa SW 14.0 km/h 14.0 km/h 31 % 0.0 mm
13:46 30.4 °C 11.8 °C 1019.9 hPa SE 9.3 km/h 9.3 km/h 32 % 0.0 mm
13:51 30.8 °C 11.7 °C 1019.9 hPa SW 14.8 km/h 14.8 km/h 31 % 0.0 mm
13:56 30.6 °C 11.6 °C 1019.9 hPa SW 13.0 km/h 13.0 km/h 31 % 0.0 mm
14:01 31.0 °C 11.9 °C 1019.9 hPa WSW 16.7 km/h 16.7 km/h 31 % 0.0 mm
14:06 30.7 °C 12.1 °C 1019.9 hPa West 13.0 km/h 13.0 km/h 32 % 0.0 mm
14:11 30.6 °C 11.6 °C 1019.9 hPa South 14.8 km/h 14.8 km/h 31 % 0.0 mm
14:16 30.7 °C 11.6 °C 1019.9 hPa West 14.8 km/h 14.8 km/h 31 % 0.0 mm
14:21 31.3 °C 12.2 °C 1019.9 hPa South 5.6 km/h 5.8 km/h 31 % 0.0 mm
14:26 31.3 °C 11.7 °C 1019.9 hPa WSW 11.1 km/h 11.1 km/h 30 % 0.0 mm
14:31 31.8 °C 12.1 °C 1019.9 hPa South 5.6 km/h 5.6 km/h 30 % 0.0 mm
14:36 32.1 °C 12.3 °C 1019.9 hPa South 11.1 km/h 11.1 km/h 30 % 0.0 mm
14:41 32.1 °C 11.8 °C 1019.9 hPa South 13.0 km/h 13.0 km/h 29 % 0.0 mm
14:46 32.1 °C 12.3 °C 1019.9 hPa WSW 9.5 km/h 9.5 km/h 30 % 0.0 mm
14:51 31.7 °C 11.5 °C 1019.9 hPa South 9.3 km/h 9.3 km/h 29 % 0.0 mm
14:56 31.6 °C 11.4 °C 1019.9 hPa WSW 22.2 km/h 22.2 km/h 29 % 0.0 mm
15:01 31.7 °C 11.5 °C 1019.9 hPa West 13.0 km/h 13.0 km/h 29 % 0.0 mm
15:06 32.0 °C 11.2 °C 1019.9 hPa SW 13.0 km/h 13.0 km/h 28 % 0.0 mm
15:11 32.1 °C 11.3 °C 1019.9 hPa SW 9.3 km/h 9.3 km/h 28 % 0.0 mm
15:16 32.2 °C 10.8 °C 1019.9 hPa SW 14.8 km/h 14.8 km/h 27 % 0.0 mm
15:21 32.0 °C 10.7 °C 1019.9 hPa WSW 15.1 km/h 15.1 km/h 27 % 0.0 mm
15:26 31.7 °C 10.9 °C 1019.9 hPa SW 11.1 km/h 11.1 km/h 28 % 0.0 mm
15:31 31.4 °C 10.7 °C 1019.9 hPa SW 16.7 km/h 16.7 km/h 28 % 0.0 mm
15:36 31.5 °C 10.8 °C 1019.9 hPa SSW 13.0 km/h 13.0 km/h 28 % 0.0 mm
15:41 31.1 °C 10.4 °C 1019.9 hPa WSW 16.7 km/h 16.7 km/h 28 % 0.0 mm
15:46 31.4 °C 10.7 °C 1019.9 hPa South 14.8 km/h 14.8 km/h 28 % 0.0 mm
15:51 31.2 °C 10.0 °C 1019.9 hPa SSW 13.0 km/h 13.0 km/h 27 % 0.0 mm
15:56 30.9 °C 9.7 °C 1019.9 hPa SSW 16.7 km/h 16.7 km/h 27 % 0.0 mm
16:01 31.0 °C 9.8 °C 1019.9 hPa SSW 13.0 km/h 13.0 km/h 27 % 0.0 mm
16:06 30.6 °C 8.9 °C 1019.9 hPa SSW 13.0 km/h 13.0 km/h 26 % 0.0 mm
16:11 30.4 °C 8.7 °C 1019.9 hPa WSW 18.5 km/h 18.5 km/h 26 % 0.0 mm
16:16 30.5 °C 8.8 °C 1019.9 hPa SW 12.6 km/h 12.6 km/h 26 % 0.0 mm
16:21 30.6 °C 8.9 °C 1019.9 hPa WSW 16.7 km/h 16.7 km/h 26 % 0.0 mm
16:26 30.5 °C 8.8 °C 1019.9 hPa South 13.0 km/h 13.0 km/h 26 % 0.0 mm
16:31 30.9 °C 9.2 °C 1019.9 hPa WSW 13.0 km/h 13.0 km/h 26 % 0.0 mm
16:36 31.2 °C 9.4 °C 1019.9 hPa SSW 9.3 km/h 9.3 km/h 26 % 0.0 mm
16:41 31.1 °C 9.3 °C 1019.9 hPa West 11.1 km/h 11.1 km/h 26 % 0.0 mm
16:46 31.0 °C 9.8 °C 1019.9 hPa SW 13.0 km/h 13.0 km/h 27 % 0.0 mm
16:51 31.0 °C 9.8 °C 1019.9 hPa West 16.7 km/h 16.7 km/h 27 % 0.0 mm
16:56 30.6 °C 9.4 °C 1019.9 hPa SW 22.2 km/h 22.2 km/h 27 % 0.0 mm
17:01 30.4 °C 9.3 °C 1019.9 hPa SW 11.1 km/h 11.1 km/h 27 % 0.0 mm
17:06 30.2 °C 8.6 °C 1019.9 hPa SW 20.4 km/h 20.4 km/h 26 % 0.0 mm
17:11 30.2 °C 8.6 °C 1018.8 hPa SSW 21.2 km/h 21.2 km/h 26 % 0.0 mm
17:16 29.6 °C 8.6 °C 1018.8 hPa SSW 16.7 km/h 16.7 km/h 27 % 0.0 mm
17:21 29.6 °C 8.6 °C 1018.8 hPa SW 16.7 km/h 16.7 km/h 27 % 0.0 mm
17:26 29.4 °C 8.4 °C 1018.8 hPa SSW 16.7 km/h 16.7 km/h 27 % 0.0 mm
17:31 29.3 °C 7.8 °C 1018.8 hPa SW 20.4 km/h 20.4 km/h 26 % 0.0 mm
17:36 29.6 °C 8.1 °C 1018.8 hPa SSW 16.7 km/h 16.7 km/h 26 % 0.0 mm
17:41 29.9 °C 8.3 °C 1019.9 hPa WSW 13.0 km/h 13.0 km/h 26 % 0.0 mm
17:42 29.9 °C 8.3 °C 1019.9 hPa WSW 13.0 km/h 13.0 km/h 26 % 0.0 mm
17:47 29.8 °C 8.2 °C 1019.9 hPa SSW 13.0 km/h 13.0 km/h 26 % 0.0 mm
17:52 30.0 °C 8.4 °C 1019.9 hPa WSW 13.0 km/h 13.0 km/h 26 % 0.0 mm
17:57 29.8 °C 8.2 °C 1019.9 hPa SW 14.8 km/h 14.8 km/h 26 % 0.0 mm
18:02 29.9 °C 8.3 °C 1019.9 hPa SSW 11.1 km/h 11.1 km/h 26 % 0.0 mm
18:07 29.8 °C 8.2 °C 1019.9 hPa SW 18.5 km/h 18.5 km/h 26 % 0.0 mm
18:12 29.9 °C 7.7 °C 1019.9 hPa South 16.7 km/h 16.7 km/h 25 % 0.0 mm
18:17 29.8 °C 7.7 °C 1019.9 hPa SW 14.8 km/h 14.8 km/h 25 % 0.0 mm
18:22 29.7 °C 7.6 °C 1019.9 hPa South 13.0 km/h 13.0 km/h 25 % 0.0 mm
18:27 29.8 °C 7.7 °C 1019.9 hPa SW 7.4 km/h 7.4 km/h 25 % 0.0 mm
18:32 29.9 °C 7.7 °C 1019.9 hPa WSW 15.1 km/h 15.1 km/h 25 % 0.0 mm
18:37 29.4 °C 6.7 °C 1019.9 hPa SW 14.8 km/h 14.8 km/h 24 % 0.0 mm
18:42 29.1 °C 5.8 °C 1018.8 hPa WSW 13.0 km/h 13.0 km/h 23 % 0.0 mm
18:47 29.0 °C 5.8 °C 1018.8 hPa SW 9.3 km/h 9.3 km/h 23 % 0.0 mm
18:52 29.0 °C 6.4 °C 1018.8 hPa SSW 7.4 km/h 7.4 km/h 24 % 0.0 mm
18:57 28.8 °C 6.8 °C 1018.8 hPa SW 14.8 km/h 14.8 km/h 25 % 0.0 mm
19:02 28.2 °C 5.7 °C 1018.8 hPa SW 9.7 km/h 9.7 km/h 24 % 0.0 mm
19:07 27.9 °C 6.6 °C 1018.8 hPa WSW 16.7 km/h 16.7 km/h 26 % 0.0 mm
19:12 27.8 °C 6.6 °C 1018.8 hPa WSW 16.7 km/h 16.7 km/h 26 % 0.0 mm
19:17 27.6 °C 6.4 °C 1018.8 hPa WSW 16.7 km/h 16.7 km/h 26 % 0.0 mm
19:22 27.5 °C 6.8 °C 1018.8 hPa South 11.9 km/h 11.9 km/h 27 % 0.0 mm
19:27 27.6 °C 6.9 °C 1018.8 hPa South 11.9 km/h 11.9 km/h 27 % 0.0 mm
19:32 27.3 °C 6.7 °C 1018.8 hPa South 11.9 km/h 11.9 km/h 27 % 0.0 mm
19:37 27.1 °C 7.0 °C 1018.8 hPa West 9.5 km/h 10.0 km/h 28 % 0.0 mm
19:42 27.1 °C 7.0 °C 1018.8 hPa West 11.1 km/h 11.1 km/h 28 % 0.0 mm
19:47 26.8 °C 7.8 °C 1018.8 hPa West 11.1 km/h 11.1 km/h 30 % 0.0 mm
19:52 26.6 °C 7.6 °C 1018.8 hPa West 11.1 km/h 11.1 km/h 30 % 0.0 mm
19:58 26.3 °C 8.3 °C 1018.8 hPa West 11.1 km/h 11.1 km/h 32 % 0.0 mm
20:03 26.1 °C 8.6 °C 1018.8 hPa West 11.1 km/h 11.1 km/h 33 % 0.0 mm
20:08 26.0 °C 8.5 °C 1018.8 hPa WSW 13.0 km/h 13.0 km/h 33 % 0.0 mm
20:13 25.8 °C 8.7 °C 1018.8 hPa WSW 13.0 km/h 13.0 km/h 34 % 0.0 mm
20:18 25.6 °C 9.0 °C 1018.8 hPa WSW 13.7 km/h 13.7 km/h 35 % 0.0 mm
20:23 25.4 °C 9.2 °C 1018.8 hPa WSW 13.0 km/h 13.0 km/h 36 % 0.0 mm
20:28 25.3 °C 9.2 °C 1018.8 hPa WSW 13.0 km/h 13.0 km/h 36 % 0.0 mm
20:30 20.6 °C 11.8 °C 1020.9 hPa SSW 3.2 km/h 6.4 km/h 57 % 0.0 mm
20:33 25.2 °C 9.1 °C 1018.8 hPa WSW 13.0 km/h 13.0 km/h 36 % 0.0 mm
20:38 25.0 °C 8.9 °C 1018.8 hPa WSW 13.0 km/h 13.0 km/h 36 % 0.0 mm
20:40 20.5 °C 11.7 °C 1020.9 hPa SSW 3.2 km/h 6.4 km/h 57 % 0.0 mm
20:43 24.9 °C 9.2 °C 1018.8 hPa WSW 13.0 km/h 13.0 km/h 37 % 0.0 mm
20:48 24.7 °C 9.4 °C 1018.8 hPa WSW 13.0 km/h 13.0 km/h 38 % 0.0 mm
20:50 20.2 °C 11.4 °C 1020.9 hPa SSW 3.2 km/h 6.4 km/h 57 % 0.0 mm
20:58 24.4 °C 9.6 °C 1018.8 hPa WSW 13.0 km/h 13.0 km/h 39 % 0.0 mm
21:00 20.0 °C 10.9 °C 1020.9 hPa SW 1.6 km/h 3.2 km/h 56 % 0.0 mm
21:03 24.2 °C 9.4 °C 1018.8 hPa WSW 13.0 km/h 13.0 km/h 39 % 0.0 mm
21:08 24.0 °C 9.6 °C 1018.8 hPa WSW 13.0 km/h 13.0 km/h 40 % 0.0 mm
21:10 19.9 °C 11.1 °C 1020.9 hPa WSW 1.6 km/h 3.2 km/h 57 % 0.0 mm
21:13 23.9 °C 9.5 °C 1019.9 hPa WSW 13.0 km/h 13.0 km/h 40 % 0.0 mm
21:18 23.7 °C 9.3 °C 1019.9 hPa WSW 13.0 km/h 13.0 km/h 40 % 0.0 mm
21:20 19.9 °C 11.1 °C 1020.9 hPa West 1.6 km/h 3.2 km/h 57 % 0.0 mm
21:23 23.5 °C 9.5 °C 1019.9 hPa WSW 13.0 km/h 13.0 km/h 41 % 0.0 mm
21:28 23.4 °C 9.4 °C 1018.8 hPa WSW 13.0 km/h 13.0 km/h 41 % 0.0 mm
21:30 19.9 °C 11.1 °C 1020.9 hPa West 1.6 km/h 1.6 km/h 57 % 0.0 mm
21:33 23.3 °C 9.3 °C 1018.8 hPa WSW 13.0 km/h 13.0 km/h 41 % 0.0 mm
21:38 23.1 °C 9.5 °C 1018.8 hPa WSW 13.0 km/h 13.0 km/h 42 % 0.0 mm
21:40 19.9 °C 10.8 °C 1020.9 hPa West 1.6 km/h 1.6 km/h 56 % 0.0 mm
21:43 23.0 °C 9.7 °C 1019.9 hPa WSW 13.0 km/h 13.0 km/h 43 % 0.0 mm
21:48 22.8 °C 9.9 °C 1019.9 hPa WSW 13.0 km/h 13.0 km/h 44 % 0.0 mm
21:53 22.7 °C 10.2 °C 1019.9 hPa WSW 13.0 km/h 13.0 km/h 45 % 0.0 mm
21:58 22.6 °C 10.1 °C 1019.9 hPa WSW 13.0 km/h 13.0 km/h 45 % 0.0 mm
22:00 19.9 °C 10.6 °C 1019.9 hPa West 1.6 km/h 1.6 km/h 55 % 0.0 mm
22:03 22.5 °C 9.9 °C 1019.9 hPa WSW 13.0 km/h 13.0 km/h 45 % 0.0 mm
22:08 22.4 °C 9.9 °C 1019.9 hPa WSW 13.0 km/h 13.0 km/h 45 % 0.0 mm
22:10 19.6 °C 10.3 °C 1019.9 hPa West 1.6 km/h 1.6 km/h 55 % 0.0 mm
22:13 22.3 °C 10.1 °C 1019.9 hPa WSW 13.0 km/h 13.0 km/h 46 % 0.0 mm
22:18 22.2 °C 10.0 °C 1019.9 hPa WSW 13.0 km/h 13.0 km/h 46 % 0.0 mm
22:20 19.4 °C 10.1 °C 1019.9 hPa West 1.6 km/h 1.6 km/h 55 % 0.0 mm
22:23 22.1 °C 9.9 °C 1019.9 hPa West 4.7 km/h 4.7 km/h 46 % 0.0 mm
22:28 22.1 °C 9.9 °C 1018.8 hPa West 4.7 km/h 4.7 km/h 46 % 0.0 mm
22:30 19.2 °C 9.9 °C 1019.9 hPa West 1.6 km/h 1.6 km/h 55 % 0.0 mm
22:33 22.0 °C 9.8 °C 1018.8 hPa West 4.7 km/h 4.7 km/h 46 % 0.0 mm
22:38 22.0 °C 10.2 °C 1018.8 hPa West 4.7 km/h 4.7 km/h 47 % 0.0 mm
22:40 19.1 °C 9.6 °C 1019.9 hPa WSW 3.2 km/h 4.8 km/h 54 % 0.0 mm
22:43 21.9 °C 10.1 °C 1019.9 hPa West 4.7 km/h 4.7 km/h 47 % 0.0 mm
22:48 21.8 °C 10.0 °C 1019.9 hPa West 4.7 km/h 4.7 km/h 47 % 0.0 mm
22:50 19.1 °C 9.3 °C 1019.9 hPa SW 3.2 km/h 4.8 km/h 53 % 0.0 mm
22:53 21.7 °C 10.2 °C 1019.9 hPa West 4.7 km/h 4.7 km/h 48 % 0.0 mm
22:58 21.6 °C 10.1 °C 1019.9 hPa West 4.7 km/h 4.7 km/h 48 % 0.0 mm
23:00 19.0 °C 9.2 °C 1019.9 hPa SW 3.2 km/h 4.8 km/h 53 % 0.0 mm
23:03 21.5 °C 10.0 °C 1019.9 hPa West 4.7 km/h 4.7 km/h 48 % 0.0 mm
23:08 21.5 °C 10.0 °C 1019.9 hPa West 4.7 km/h 4.7 km/h 48 % 0.0 mm
23:10 19.3 °C 9.2 °C 1019.9 hPa SW 3.2 km/h 4.8 km/h 52 % 0.0 mm
23:13 21.4 °C 9.9 °C 1019.9 hPa West 4.7 km/h 4.7 km/h 48 % 0.0 mm
23:18 21.4 °C 9.9 °C 1019.9 hPa West 4.7 km/h 4.7 km/h 48 % 0.0 mm
23:20 19.3 °C 9.2 °C 1019.9 hPa SW 3.2 km/h 4.8 km/h 52 % 0.0 mm
23:23 21.4 °C 9.9 °C 1019.9 hPa West 4.7 km/h 4.7 km/h 48 % 0.0 mm
23:28 21.3 °C 9.8 °C 1019.9 hPa West 4.7 km/h 4.7 km/h 48 % 0.0 mm
23:30 19.3 °C 9.2 °C 1019.9 hPa SW 1.6 km/h 3.2 km/h 52 % 0.0 mm
23:33 21.2 °C 9.7 °C 1019.9 hPa West 4.7 km/h 4.7 km/h 48 % 0.0 mm
23:38 21.2 °C 9.7 °C 1019.9 hPa West 4.7 km/h 4.7 km/h 48 % 0.0 mm
23:40 19.2 °C 8.8 °C 1019.9 hPa WSW 1.6 km/h 3.2 km/h 51 % 0.0 mm
23:43 21.1 °C 9.7 °C 1019.9 hPa West 4.7 km/h 4.7 km/h 48 % 0.0 mm
23:48 21.1 °C 9.7 °C 1019.9 hPa West 4.7 km/h 4.7 km/h 48 % 0.0 mm
23:50 19.2 °C 8.8 °C 1019.9 hPa Calm   3.2 km/h 51 % 0.0 mm
23:53 21.0 °C 9.6 °C 1019.9 hPa West 4.7 km/h 4.7 km/h 48 % 0.0 mm
23:58 21.0 °C 9.9 °C 1019.9 hPa West 4.7 km/h 4.7 km/h 49 % 0.0 mm
Meteo Sesrovires
Elogis d' Weather Underground - 3.75 mb

Guio original per  Jim McMurry - jmcmurry@mwt.net Adaptat per a la plantilla per  Wim van der Kuil - Leuven-Template.eu

Trobareu la nostra informacio del temps tambe a:

Weather Underground

AWEKAS